Time;durP1;ratioP1;P1;durP2;ratioP2;P2;SDS_P1;SDS_P2;PMS_P1;PMS_P2;Temp;Humidity;BMP_temperature;BMP_pressure;BME280_temperature;BME280_humidity;BME280_pressure;Samples;Min_cycle;Max_cycle;Signal;HPM_P1;HPM_P2
2022/12/05 00:00:14;;;;;;;21.52;15.70;;;;;;;4.85;64.40;101652.84;5014525;28;20382;-80
2022/12/05 00:02:40;;;;;;;24.42;18.70;;;;;;;4.85;64.24;101646.66;5011857;28;20365;-78
2022/12/05 00:05:05;;;;;;;16.10;14.52;;;;;;;4.85;64.38;101649.34;5013435;28;20029;-78
2022/12/05 00:07:31;;;;;;;21.67;18.83;;;;;;;4.86;64.53;101650.97;5014980;28;20408;-79
2022/12/05 00:09:56;;;;;;;15.60;14.13;;;;;;;4.87;64.75;101647.31;5011749;28;20045;-79
2022/12/05 00:12:21;;;;;;;17.55;16.02;;;;;;;4.87;64.64;101656.16;5012540;28;20032;-77
2022/12/05 00:14:47;;;;;;;29.80;18.92;;;;;;;4.89;64.33;101650.63;5017832;28;20272;-79
2022/12/05 00:17:12;;;;;;;16.77;15.18;;;;;;;4.89;64.62;101658.66;5009770;28;20037;-80
2022/12/05 00:19:38;;;;;;;26.83;17.73;;;;;;;4.90;64.61;101663.84;5010561;28;20500;-80
2022/12/05 00:22:03;;;;;;;28.02;20.17;;;;;;;4.91;64.23;101660.16;5012740;28;20049;-80
2022/12/05 00:24:29;;;;;;;30.10;19.50;;;;;;;4.92;64.23;101663.66;5001813;28;20026;-78
2022/12/05 00:26:54;;;;;;;20.25;17.45;;;;;;;4.94;64.56;101658.97;5018916;28;20038;-78
2022/12/05 00:29:20;;;;;;;18.00;16.13;;;;;;;4.94;64.21;101661.63;5012543;28;20042;-77
2022/12/05 00:31:45;;;;;;;18.27;16.65;;;;;;;4.92;64.72;101661.81;5010878;28;20033;-77
2022/12/05 00:34:10;;;;;;;17.75;16.02;;;;;;;4.92;64.67;101651.09;5012848;28;20041;-78
2022/12/05 00:36:36;;;;;;;21.88;17.52;;;;;;;4.92;64.51;101650.28;5011127;28;20057;-78
2022/12/05 00:39:06;;;;;;;22.92;19.13;;;;;;;4.92;64.42;101645.75;5012474;28;20046;-78
2022/12/05 00:41:31;;;;;;;18.02;16.45;;;;;;;4.91;64.39;101641.41;5011893;28;20088;-79
2022/12/05 00:43:59;;;;;;;27.10;20.48;;;;;;;4.91;64.42;101645.91;5013087;28;20037;-78
2022/12/05 00:46:28;;;;;;;21.38;15.98;;;;;;;4.92;64.23;101644.91;5017591;28;20041;-77
2022/12/05 00:48:55;;;;;;;12.15;11.43;;;;;;;4.92;64.56;101644.91;5013072;28;20046;-78
2022/12/05 00:51:29;;;;;;;12.73;11.73;;;;;;;4.94;64.75;101645.56;5011130;28;20112;-78
2022/12/05 00:53:58;;;;;;;29.52;20.27;;;;;;;4.94;64.32;101651.75;5010387;28;20049;-78
2022/12/05 00:56:24;;;;;;;30.45;18.90;;;;;;;4.93;64.62;101650.06;5011408;28;20034;-78
2022/12/05 00:58:52;;;;;;;29.55;21.17;;;;;;;4.94;64.47;101645.56;5012391;28;20119;-79
2022/12/05 01:01:22;;;;;;;18.98;17.02;;;;;;;4.95;64.75;101644.53;5012352;28;20030;-78
2022/12/05 01:03:50;;;;;;;28.17;20.80;;;;;;;4.94;64.44;101649.06;5010271;28;20084;-78
2022/12/05 01:06:15;;;;;;;24.17;18.13;;;;;;;4.95;64.37;101645.38;5010556;28;20371;-78
2022/12/05 01:08:41;;;;;;;22.80;20.65;;;;;;;4.95;64.71;101648.03;5011956;28;20042;-79
2022/12/05 01:11:13;;;;;;;25.83;19.77;;;;;;;4.96;64.59;101647.06;5012130;28;20030;-79
2022/12/05 01:13:38;;;;;;;34.50;18.50;;;;;;;4.98;64.66;101644.16;5010727;28;20045;-78
2022/12/05 01:16:05;;;;;;;22.10;18.15;;;;;;;4.99;64.63;101653.88;5009953;28;20037;-79
2022/12/05 01:18:30;;;;;;;17.77;15.90;;;;;;;4.99;64.60;101653.88;5015411;28;20121;-78
2022/12/05 01:20:56;;;;;;;20.77;17.90;;;;;;;4.99;64.33;101656.56;5010335;28;20141;-78
2022/12/05 01:23:22;;;;;;;28.08;20.55;;;;;;;5.00;64.32;101655.53;5011957;28;20136;-77
2022/12/05 01:25:50;;;;;;;23.30;20.48;;;;;;;4.99;64.47;101653.88;5011624;28;20474;-78
2022/12/05 01:28:16;;;;;;;23.95;17.08;;;;;;;5.01;64.62;101659.88;5012493;28;20029;-84
2022/12/05 01:30:46;;;;;;;28.58;20.95;;;;;;;5.02;64.52;101663.41;5009874;28;20030;-79
2022/12/05 01:33:12;;;;;;;22.60;19.70;;;;;;;5.01;64.45;101659.88;5010777;28;20386;-80
2022/12/05 01:35:39;;;;;;;21.05;18.42;;;;;;;5.02;64.75;101664.22;5010441;28;20041;-82
2022/12/05 01:38:05;;;;;;;26.55;20.00;;;;;;;5.02;64.52;101658.03;5012318;28;20030;-80
2022/12/05 01:40:34;;;;;;;32.00;23.35;;;;;;;5.03;64.53;101665.88;5012148;28;20379;-81
2022/12/05 01:43:00;;;;;;;24.25;18.08;;;;;;;5.04;64.47;101666.69;5010486;28;20410;-80
2022/12/05 01:45:38;;;;;;;28.88;21.40;;;;;;;5.04;64.82;101672.06;5010321;28;20026;-80
2022/12/05 01:48:10;;;;;;;19.48;17.48;;;;;;;5.05;64.39;101676.41;5001470;28;20490;-77
2022/12/05 01:50:36;;;;;;;27.52;21.80;;;;;;;5.04;64.62;101680.94;5026190;28;20026;-78
2022/12/05 01:53:03;;;;;;;32.95;20.27;;;;;;;5.05;64.53;101679.09;5011328;28;20037;-78
2022/12/05 01:55:28;;;;;;;26.25;18.73;;;;;;;5.05;64.61;101676.41;5010077;28;20434;-80
2022/12/05 01:57:56;;;;;;;40.60;23.35;;;;;;;5.06;64.49;101678.06;5010655;28;20061;-77
2022/12/05 02:00:22;;;;;;;22.67;20.58;;;;;;;5.06;64.75;101683.41;5011221;28;20095;-77
2022/12/05 02:02:52;;;;;;;33.28;21.55;;;;;;;5.06;64.78;101681.56;5011311;28;20038;-77
2022/12/05 02:05:24;;;;;;;32.20;21.42;;;;;;;5.07;64.61;101685.94;5010965;28;20029;-76
2022/12/05 02:07:50;;;;;;;24.90;20.38;;;;;;;5.08;64.46;101684.91;5009378;28;20072;-77
2022/12/05 02:10:16;;;;;;;28.13;21.40;;;;;;;5.07;64.41;101680.56;5013584;28;20041;-77
2022/12/05 02:12:43;;;;;;;34.55;20.58;;;;;;;5.10;64.46;101684.72;5008957;28;20038;-80
2022/12/05 02:15:23;;;;;;;20.38;18.27;;;;;;;5.11;64.46;101689.06;5011415;28;20069;-77
2022/12/05 02:18:01;;;;;;;20.63;18.35;;;;;;;5.10;64.70;101688.22;5008623;28;20042;-77
2022/12/05 02:21:09;;;;;;;24.85;20.25;;;;;;;5.10;64.63;101688.22;5013103;28;20033;-78
2022/12/05 02:23:57;;;;;;;22.65;20.27;;;;;;;5.08;64.51;101676.88;5001725;28;20065;-78
2022/12/05 02:26:47;;;;;;;19.73;17.95;;;;;;;5.10;64.56;101682.06;5001419;28;20112;-80
2022/12/05 02:29:36;;;;;;;24.58;18.67;;;;;;;5.09;64.16;101683.91;4999243;28;20049;-80
2022/12/05 02:32:12;;;;;;;21.30;19.25;;;;;;;5.07;64.69;101685.94;5020315;28;20482;-80
2022/12/05 02:34:52;;;;;;;24.13;18.50;;;;;;;5.09;64.34;101681.22;5005837;28;20551;-78
2022/12/05 02:37:27;;;;;;;24.42;17.75;;;;;;;5.09;64.54;101683.91;5009743;28;20038;-78
2022/12/05 02:40:02;;;;;;;23.90;19.08;;;;;;;5.11;64.57;101676.50;5009544;28;20038;-79
2022/12/05 02:42:42;;;;;;;19.75;16.85;;;;;;;5.11;64.46;101676.50;5011878;28;20026;-81
2022/12/05 02:45:13;;;;;;;20.30;17.67;;;;;;;5.12;64.34;101678.19;5010511;28;20061;-78
2022/12/05 02:47:46;;;;;;;22.98;17.63;;;;;;;5.12;64.54;101672.00;5013821;28;20037;-78
2022/12/05 02:50:16;;;;;;;14.52;13.38;;;;;;;5.11;64.13;101679.16;5011135;28;20022;-77
2022/12/05 02:52:45;;;;;;;18.85;17.08;;;;;;;5.12;64.52;101677.34;5025823;28;20110;-81
2022/12/05 02:55:13;;;;;;;20.13;17.92;;;;;;;5.12;64.43;101682.72;5008087;28;20023;-79
2022/12/05 02:57:44;;;;;;;20.52;18.60;;;;;;;5.11;64.30;101681.84;5009009;28;20088;-78
2022/12/05 03:00:10;;;;;;;23.25;20.75;;;;;;;5.11;64.79;101676.50;5010644;28;20038;-78
2022/12/05 03:02:39;;;;;;;18.33;16.38;;;;;;;5.12;64.58;101680.03;5011703;28;20037;-79
2022/12/05 03:05:23;;;;;;;22.90;19.05;;;;;;;5.13;64.34;101684.34;5010728;28;20026;-79
2022/12/05 03:07:52;;;;;;;20.13;18.25;;;;;;;5.14;64.62;101688.69;5011045;28;20044;-83
2022/12/05 03:10:22;;;;;;;20.65;18.33;;;;;;;5.13;64.71;101681.69;5013284;28;20025;-78
2022/12/05 03:12:53;;;;;;;16.95;15.55;;;;;;;5.14;64.51;101684.19;5013421;28;20058;-82
2022/12/05 03:15:27;;;;;;;24.48;19.55;;;;;;;5.14;64.63;101686.00;5009968;28;20041;-78
2022/12/05 03:18:03;;;;;;;32.42;23.10;;;;;;;5.14;64.60;101678.81;5008513;28;20057;-78
2022/12/05 03:20:33;;;;;;;15.45;13.93;;;;;;;5.14;64.39;101676.16;5013407;28;20026;-78
2022/12/05 03:23:05;;;;;;;27.17;20.98;;;;;;;5.15;64.27;101687.69;5014049;28;20043;-80
2022/12/05 03:25:49;;;;;;;26.70;20.40;;;;;;;5.16;64.62;101686.66;5013854;28;20109;-79
2022/12/05 03:28:29;;;;;;;23.48;17.65;;;;;;;5.16;64.41;101678.63;5013826;28;20084;-78
2022/12/05 03:31:00;;;;;;;20.42;18.35;;;;;;;5.17;64.58;101678.44;5015373;28;20466;-78
2022/12/05 03:33:30;;;;;;;25.13;17.90;;;;;;;5.17;64.54;101675.78;5014091;28;20116;-79
2022/12/05 03:36:10;;;;;;;24.13;18.65;;;;;;;5.17;64.46;101675.78;5012992;28;20058;-79
2022/12/05 03:38:40;;;;;;;16.98;15.38;;;;;;;5.17;64.44;101674.94;5014105;28;20041;-78
2022/12/05 03:41:08;;;;;;;22.75;18.40;;;;;;;5.17;64.67;101677.63;5013378;28;20038;-79
2022/12/05 03:43:48;;;;;;;25.02;17.67;;;;;;;5.18;64.31;101676.59;5015609;28;20030;-79
2022/12/05 03:46:26;;;;;;;28.70;19.67;;;;;;;5.18;64.48;101682.78;5012968;28;20041;-79
2022/12/05 03:48:54;;;;;;;20.48;18.48;;;;;;;5.18;64.68;101680.09;5012889;28;20030;-82
2022/12/05 03:51:24;;;;;;;28.40;21.83;;;;;;;5.18;64.57;101680.09;5013910;28;20436;-78
2022/12/05 03:54:25;;;;;;;16.95;15.43;;;;;;;5.17;64.78;101680.31;5013820;28;20033;-77
2022/12/05 03:56:58;;;;;;;18.70;16.77;;;;;;;5.18;64.82;101684.63;5013656;28;20129;-78
2022/12/05 03:59:38;;;;;;;24.65;19.23;;;;;;;5.18;64.39;101682.78;5012973;28;20124;-78
2022/12/05 04:02:11;;;;;;;26.00;20.45;;;;;;;5.18;64.57;101684.63;5013677;28;20044;-78
2022/12/05 04:04:45;;;;;;;22.92;18.27;;;;;;;5.19;64.74;101683.59;5025545;28;20030;-78
2022/12/05 04:07:14;;;;;;;36.13;19.45;;;;;;;5.18;64.58;101676.59;5010310;28;20034;-80
2022/12/05 04:09:46;;;;;;;20.85;17.33;;;;;;;5.19;64.53;101683.59;5013537;28;20084;-79
2022/12/05 04:12:21;;;;;;;21.85;18.35;;;;;;;5.19;64.45;101686.28;5012932;28;20026;-80
2022/12/05 04:14:50;;;;;;;22.08;17.73;;;;;;;5.19;64.69;101684.47;5013523;28;20029;-78
2022/12/05 04:17:41;;;;;;;14.43;13.15;;;;;;;5.20;64.90;101685.28;5019697;28;20641;-78
2022/12/05 04:23:09;;;;;;;16.17;14.85;;;;;;;5.20;64.62;101688.78;5012761;28;20091;-77
2022/12/05 04:26:02;;;;;;;14.98;14.15;;;;;;;5.20;65.00;101691.47;5012087;28;20034;-79
2022/12/05 04:28:37;;;;;;;22.25;18.10;;;;;;;5.20;64.88;101693.31;5010979;28;20033;-78
2022/12/05 04:31:06;;;;;;;17.73;16.17;;;;;;;5.20;64.95;101694.16;5011879;28;20042;-80
2022/12/05 04:33:49;;;;;;;19.10;17.23;;;;;;;5.23;64.68;101700.16;5011912;28;20030;-78
2022/12/05 04:36:21;;;;;;;27.27;21.10;;;;;;;5.23;64.59;101700.16;5012057;28;20033;-78
2022/12/05 04:39:01;;;;;;;30.77;18.80;;;;;;;5.22;64.48;101696.66;5013217;28;20113;-79
2022/12/05 04:41:45;;;;;;;18.65;17.13;;;;;;;5.22;64.68;101699.34;5002061;28;20041;-78
2022/12/05 04:44:16;;;;;;;28.45;20.55;;;;;;;5.23;64.63;101700.16;5012292;28;20041;-79
2022/12/05 04:46:44;;;;;;;19.92;17.08;;;;;;;5.24;64.41;101707.16;5011025;28;20026;-78
2022/12/05 04:49:19;;;;;;;29.75;20.23;;;;;;;5.24;64.66;101705.34;5015488;28;20041;-78
2022/12/05 04:51:49;;;;;;;20.77;18.20;;;;;;;5.25;64.53;101709.69;5009111;28;20029;-78
2022/12/05 04:54:21;;;;;;;28.05;18.73;;;;;;;5.26;64.68;101707.81;5011999;28;20026;-79
2022/12/05 04:56:49;;;;;;;18.00;16.27;;;;;;;5.25;64.70;101709.69;5012575;28;20030;-78
2022/12/05 04:59:15;;;;;;;23.95;20.02;;;;;;;5.24;64.68;101708.03;5019870;28;20056;-79
2022/12/05 05:01:47;;;;;;;26.92;20.10;;;;;;;5.26;64.81;101705.13;5019333;28;20386;-82
2022/12/05 05:04:18;;;;;;;18.92;17.10;;;;;;;5.26;64.90;101702.47;5002772;28;20481;-79
2022/12/05 05:06:43;;;;;;;21.58;18.23;;;;;;;5.27;64.65;101704.16;5012551;28;20121;-79
2022/12/05 05:09:09;;;;;;;21.17;16.27;;;;;;;5.26;64.79;101705.97;5011448;28;20116;-79
2022/12/05 05:11:36;;;;;;;23.00;19.75;;;;;;;5.28;64.93;101700.44;5012223;28;20124;-79
2022/12/05 05:14:02;;;;;;;24.08;20.38;;;;;;;5.27;64.80;101699.63;5010554;28;20498;-83
2022/12/05 05:16:30;;;;;;;31.80;21.10;;;;;;;5.26;64.49;101699.78;5011667;28;20533;-79
2022/12/05 05:18:56;;;;;;;21.40;18.92;;;;;;;5.27;64.62;101704.16;5012745;28;20033;-79
2022/12/05 05:21:30;;;;;;;22.35;19.13;;;;;;;5.26;64.87;101703.28;5012403;28;20038;-77
2022/12/05 05:23:56;;;;;;;13.35;12.52;;;;;;;5.27;64.68;101699.63;5002982;28;20030;-79
2022/12/05 05:26:23;;;;;;;23.67;20.35;;;;;;;5.28;65.02;101703.13;5010926;28;20064;-79
2022/12/05 05:28:49;;;;;;;14.45;13.65;;;;;;;5.28;64.80;101706.63;5012168;28;20045;-78
2022/12/05 05:31:16;;;;;;;18.35;16.48;;;;;;;5.28;64.76;101705.78;5017566;28;20029;-79
2022/12/05 05:33:41;;;;;;;26.33;21.30;;;;;;;5.28;64.58;101705.78;5010856;28;20710;-80
2022/12/05 05:36:12;;;;;;;24.42;19.55;;;;;;;5.28;64.91;101705.78;5011188;28;20030;-77
2022/12/05 05:38:40;;;;;;;16.65;15.27;;;;;;;5.28;65.04;101706.63;5011835;28;20034;-81
2022/12/05 05:41:10;;;;;;;27.35;19.25;;;;;;;5.28;64.43;101705.78;5018570;28;20029;-82
2022/12/05 05:43:36;;;;;;;21.00;18.48;;;;;;;5.30;65.07;101714.50;5016584;28;20029;-78
2022/12/05 05:46:03;;;;;;;29.80;18.88;;;;;;;5.29;64.78;101712.81;5012533;28;20049;-80
2022/12/05 05:48:28;;;;;;;20.27;18.35;;;;;;;5.28;64.74;101713.84;4997036;28;20058;-77
2022/12/05 05:50:54;;;;;;;20.08;18.10;;;;;;;5.30;64.78;101711.81;5002621;28;20112;-78
2022/12/05 05:53:19;;;;;;;20.23;18.08;;;;;;;5.30;65.00;101720.66;5010255;28;20050;-80
2022/12/05 05:55:44;;;;;;;27.48;19.27;;;;;;;5.30;64.80;101715.31;5010878;28;20084;-79
2022/12/05 05:58:10;;;;;;;21.95;19.60;;;;;;;5.30;64.73;101718.00;5010129;28;20057;-79
2022/12/05 06:00:35;;;;;;;21.45;19.40;;;;;;;5.31;64.84;101719.66;5010989;28;20119;-79
2022/12/05 06:03:00;;;;;;;25.73;19.77;;;;;;;5.31;64.84;101724.19;5010917;28;20077;-79
2022/12/05 06:05:26;;;;;;;17.48;15.80;;;;;;;5.31;64.87;101722.31;5012319;28;20513;-78
2022/12/05 06:07:52;;;;;;;18.45;16.75;;;;;;;5.31;65.15;101721.50;5017488;28;20132;-76
2022/12/05 06:10:17;;;;;;;20.98;18.90;;;;;;;5.30;65.25;101715.31;5010478;28;20120;-79
2022/12/05 06:12:43;;;;;;;15.93;14.13;;;;;;;5.31;65.17;101716.13;5010252;28;20430;-76
2022/12/05 06:15:08;;;;;;;24.65;20.55;;;;;;;5.31;65.13;101714.28;5011167;28;20078;-82
2022/12/05 06:17:34;;;;;;;23.23;16.55;;;;;;;5.32;65.09;101720.50;4990711;28;20446;-77
2022/12/05 06:19:59;;;;;;;24.52;19.70;;;;;;;5.32;65.13;101721.31;5008313;28;20042;-77
2022/12/05 06:22:25;;;;;;;22.10;19.27;;;;;;;5.33;64.88;101732.88;5010923;28;20026;-77
2022/12/05 06:24:50;;;;;;;21.42;17.92;;;;;;;5.33;65.05;101731.00;5010819;28;20034;-78
2022/12/05 06:27:15;;;;;;;19.90;17.55;;;;;;;5.33;64.78;101733.69;5011132;28;20026;-77
2022/12/05 06:29:41;;;;;;;23.42;18.75;;;;;;;5.33;64.90;101727.50;5011464;28;20456;-77
2022/12/05 06:32:06;;;;;;;24.65;18.98;;;;;;;5.32;65.31;101734.72;5010955;28;20030;-78
2022/12/05 06:34:32;;;;;;;16.65;15.27;;;;;;;5.33;65.17;101728.34;5010363;28;20569;-80
2022/12/05 06:36:58;;;;;;;18.02;16.27;;;;;;;5.33;65.08;101736.38;5011185;28;20032;-77
2022/12/05 06:39:24;;;;;;;22.00;19.58;;;;;;;5.34;64.71;101739.88;5010683;28;20038;-79
2022/12/05 06:41:49;;;;;;;18.48;16.77;;;;;;;5.33;64.98;101731.00;5010446;28;20049;-78
2022/12/05 06:44:15;;;;;;;19.35;17.50;;;;;;;5.34;65.07;101731.84;5011372;28;20449;-79
2022/12/05 06:46:40;;;;;;;21.60;18.50;;;;;;;5.34;65.04;101735.38;5010398;28;20121;-77
2022/12/05 06:49:05;;;;;;;19.70;17.83;;;;;;;5.35;65.34;101737.03;5006283;28;20046;-79
2022/12/05 06:51:31;;;;;;;21.17;18.98;;;;;;;5.35;64.84;101737.03;4999770;28;20038;-79
2022/12/05 06:53:56;;;;;;;21.10;19.02;;;;;;;5.36;65.34;101736.00;5011776;28;20105;-79
2022/12/05 06:56:21;;;;;;;19.65;17.67;;;;;;;5.37;65.04;101744.88;5013821;28;20441;-79
2022/12/05 06:58:49;;;;;;;20.67;18.17;;;;;;;5.38;65.42;101738.50;5018821;28;20045;-79
2022/12/05 07:04:01;;;;;;;21.75;18.33;;;;;;;5.38;65.06;101743.88;5014770;28;20049;-78
2022/12/05 07:06:27;;;;;;;20.17;17.75;;;;;;;5.39;65.06;101753.56;5014830;28;20040;-77
2022/12/05 07:08:53;;;;;;;21.27;19.13;;;;;;;5.38;65.18;101750.03;5002140;28;20120;-80
2022/12/05 07:11:18;;;;;;;18.38;16.33;;;;;;;5.40;65.24;101763.28;5012651;28;20133;-80
2022/12/05 07:13:44;;;;;;;26.38;17.80;;;;;;;5.40;65.16;101753.38;5015007;28;20030;-77
2022/12/05 07:16:09;;;;;;;19.05;17.05;;;;;;;5.40;65.25;101760.59;5015108;28;20049;-78
2022/12/05 07:18:35;;;;;;;27.70;18.92;;;;;;;5.42;65.03;101763.94;5013882;28;20040;-79
2022/12/05 07:21:05;;;;;;;21.73;19.42;;;;;;;5.41;65.15;101765.75;5003353;28;20076;-78
2022/12/05 07:23:31;;;;;;;26.60;19.05;;;;;;;5.41;65.25;101765.75;5010367;28;20140;-79
2022/12/05 07:25:56;;;;;;;18.05;16.50;;;;;;;5.42;65.02;101769.28;5008055;28;20128;-79
2022/12/05 07:28:23;;;;;;;21.27;19.00;;;;;;;5.43;65.05;101779.81;5011123;28;20033;-80
2022/12/05 07:30:48;;;;;;;22.48;18.70;;;;;;;5.43;64.96;101771.75;5028121;28;20071;-80
2022/12/05 07:33:16;;;;;;;18.75;17.02;;;;;;;5.43;64.87;101777.13;5012250;28;20113;-80
2022/12/05 07:35:42;;;;;;;20.73;17.60;;;;;;;5.44;65.22;101772.59;5026308;28;20460;-80
2022/12/05 07:38:07;;;;;;;16.88;15.20;;;;;;;5.44;65.01;101777.94;5012123;28;20470;-79
2022/12/05 07:40:32;;;;;;;25.20;20.33;;;;;;;5.45;65.02;101779.63;5012380;28;20417;-79
2022/12/05 07:42:58;;;;;;;23.55;18.85;;;;;;;5.44;65.34;101777.94;5010528;28;20048;-78
2022/12/05 07:45:23;;;;;;;20.48;18.42;;;;;;;5.45;65.12;101790.34;5011179;28;20455;-79
2022/12/05 07:47:48;;;;;;;15.02;13.93;;;;;;;5.46;65.38;101785.81;5009750;28;20053;-79
2022/12/05 07:50:14;;;;;;;19.50;17.52;;;;;;;5.43;64.85;101787.00;5012379;28;20101;-78
2022/12/05 07:52:42;;;;;;;18.92;17.05;;;;;;;5.45;65.10;101786.84;5009719;28;20041;-78
2022/12/05 07:55:07;;;;;;;18.10;16.42;;;;;;;5.44;65.05;101780.63;4994430;28;20062;-78
2022/12/05 07:57:33;;;;;;;21.20;18.45;;;;;;;5.45;65.25;101785.00;5010842;28;20084;-77
2022/12/05 07:59:58;;;;;;;20.35;17.63;;;;;;;5.43;65.16;101795.06;5011284;28;20498;-77
2022/12/05 08:02:24;;;;;;;21.10;18.23;;;;;;;5.45;65.38;101797.56;5006550;28;20072;-79
2022/12/05 08:04:49;;;;;;;19.48;17.58;;;;;;;5.43;65.17;101801.25;5010625;28;20036;-78
2022/12/05 08:07:14;;;;;;;20.27;18.38;;;;;;;5.42;65.11;101794.22;5011706;28;20042;-81
2022/12/05 08:09:40;;;;;;;20.05;16.25;;;;;;;5.43;65.21;101793.19;5009900;28;20104;-79
2022/12/05 08:12:06;;;;;;;21.73;18.42;;;;;;;5.46;65.18;101791.19;5009128;28;20041;-77
2022/12/05 08:14:31;;;;;;;21.13;18.88;;;;;;;5.47;65.22;101803.53;5004418;28;20022;-77
2022/12/05 08:16:57;;;;;;;28.55;18.55;;;;;;;5.48;65.21;101805.22;5009610;28;20033;-78
2022/12/05 08:19:22;;;;;;;23.48;19.35;;;;;;;5.48;65.14;101810.59;5009633;28;20038;-78
2022/12/05 08:21:47;;;;;;;20.83;18.65;;;;;;;5.49;65.23;101810.38;5007972;28;20042;-78
2022/12/05 08:24:13;;;;;;;17.90;16.20;;;;;;;5.50;65.49;101811.25;5007601;28;20464;-77
2022/12/05 08:26:39;;;;;;;23.70;18.48;;;;;;;5.50;65.39;101817.44;5007862;28;20475;-82
2022/12/05 08:29:11;;;;;;;20.70;18.70;;;;;;;5.50;65.40;101814.75;5003407;28;20030;-77
2022/12/05 08:31:47;;;;;;;20.58;18.40;;;;;;;5.50;65.50;101814.75;5006704;28;20095;-81
2022/12/05 08:34:13;;;;;;;20.60;17.75;;;;;;;5.51;65.47;101821.75;5003225;28;20029;-81
2022/12/05 08:36:39;;;;;;;23.27;19.52;;;;;;;5.51;65.25;101823.63;5004359;28;20042;-78
2022/12/05 08:39:07;;;;;;;19.75;17.90;;;;;;;5.52;65.33;101817.22;5008382;28;20103;-81
2022/12/05 08:41:33;;;;;;;19.92;17.90;;;;;;;5.53;65.44;101824.28;5007960;28;20042;-79
2022/12/05 08:44:04;;;;;;;18.95;17.15;;;;;;;5.53;65.29;101829.63;5007568;28;20056;-79
2022/12/05 08:46:34;;;;;;;23.02;20.60;;;;;;;5.53;65.27;101825.09;5007490;28;20038;-80
2022/12/05 08:49:00;;;;;;;20.35;18.38;;;;;;;5.53;65.26;101819.75;5008827;28;20038;-81
2022/12/05 08:51:26;;;;;;;22.60;20.23;;;;;;;5.53;65.46;101818.91;5007228;28;20045;-79
2022/12/05 08:53:51;;;;;;;27.08;20.33;;;;;;;5.53;65.73;101819.75;5007490;28;20030;-79
2022/12/05 08:56:16;;;;;;;19.70;17.70;;;;;;;5.53;65.25;101817.06;5009319;28;20030;-79
2022/12/05 08:58:42;;;;;;;31.92;20.65;;;;;;;5.53;65.45;101822.41;5006706;28;20061;-80
2022/12/05 09:01:13;;;;;;;21.42;19.05;;;;;;;5.54;65.68;101820.56;5006584;28;20391;-80
2022/12/05 09:03:39;;;;;;;22.45;19.38;;;;;;;5.54;65.46;101826.75;5007859;28;20069;-80
2022/12/05 09:06:17;;;;;;;24.98;18.15;;;;;;;5.54;65.61;101836.66;5004699;28;20360;-80
2022/12/05 09:08:43;;;;;;;20.45;18.33;;;;;;;5.55;65.43;101832.97;5009300;28;20105;-79
2022/12/05 09:11:20;;;;;;;18.23;16.42;;;;;;;5.55;65.52;101833.78;5008509;28;20034;-81
2022/12/05 09:13:47;;;;;;;18.58;16.77;;;;;;;5.56;65.67;101845.34;5005730;28;20034;-83
2022/12/05 09:16:15;;;;;;;17.00;15.55;;;;;;;5.57;65.22;101841.66;5008130;28;20474;-79
2022/12/05 09:18:41;;;;;;;23.43;19.23;;;;;;;5.57;65.64;101841.66;5003075;28;20038;-80
2022/12/05 09:21:12;;;;;;;20.75;18.65;;;;;;;5.58;65.29;101846.81;5022581;28;20045;-80
2022/12/05 09:23:38;;;;;;;24.25;20.92;;;;;;;5.57;65.62;101845.16;5009240;28;20039;-79
2022/12/05 09:26:06;;;;;;;20.58;18.50;;;;;;;5.59;65.53;101850.31;5008488;28;20030;-79
2022/12/05 09:28:33;;;;;;;29.73;23.90;;;;;;;5.60;65.42;101846.66;5005153;28;20030;-80
2022/12/05 09:31:03;;;;;;;20.50;18.48;;;;;;;5.60;65.72;101857.38;5009145;28;20116;-80
2022/12/05 09:33:30;;;;;;;22.10;19.95;;;;;;;5.61;65.60;101864.38;5006363;28;20054;-80
2022/12/05 09:35:55;;;;;;;17.67;16.00;;;;;;;5.60;65.52;101854.69;5008326;28;20034;-79
2022/12/05 09:38:21;;;;;;;21.90;19.80;;;;;;;5.61;65.54;101859.84;5009445;28;20168;-81
2022/12/05 09:40:59;;;;;;;18.52;16.65;;;;;;;5.60;65.68;101847.47;5010681;28;20398;-80
2022/12/05 09:43:35;;;;;;;22.65;19.33;;;;;;;5.62;65.64;101860.72;5009909;28;20079;-81
2022/12/05 09:46:15;;;;;;;23.83;18.73;;;;;;;5.62;65.59;101855.34;5008455;28;20059;-78
2022/12/05 09:48:41;;;;;;;25.17;19.55;;;;;;;5.63;65.40;101862.38;5005748;28;20034;-78
2022/12/05 09:51:09;;;;;;;22.13;19.27;;;;;;;5.63;65.72;101865.03;5009371;28;20030;-79
2022/12/05 09:53:37;;;;;;;21.90;19.30;;;;;;;5.63;65.45;101860.50;5004926;28;20030;-79
2022/12/05 09:56:12;;;;;;;21.55;19.35;;;;;;;5.64;65.53;101861.34;5008241;28;20076;-79
2022/12/05 09:58:40;;;;;;;31.48;19.98;;;;;;;5.64;65.59;101861.34;5006282;28;20044;-79
2022/12/05 10:01:30;;;;;;;22.70;19.05;;;;;;;5.65;65.54;101863.03;5008873;28;20068;-78
2022/12/05 10:04:04;;;;;;;19.77;17.70;;;;;;;5.64;65.46;101867.56;5006721;28;20037;-77
2022/12/05 10:06:37;;;;;;;22.73;19.70;;;;;;;5.65;65.45;101860.34;5007429;28;20041;-78
2022/12/05 10:09:47;;;;;;;18.90;17.30;;;;;;;5.65;65.88;101860.34;5010240;28;20034;-78
2022/12/05 10:12:24;;;;;;;21.15;18.30;;;;;;;5.65;65.80;101863.03;5015411;28;20049;-80
2022/12/05 10:15:17;;;;;;;19.88;18.17;;;;;;;5.64;65.86;101864.88;5004661;28;20061;-77
2022/12/05 10:17:50;;;;;;;24.63;18.80;;;;;;;5.64;65.71;101864.88;5007915;28;20505;-79
2022/12/05 10:20:24;;;;;;;20.10;18.20;;;;;;;5.66;65.69;101862.00;5006989;28;20033;-79
2022/12/05 10:23:16;;;;;;;20.77;18.75;;;;;;;5.67;65.67;101862.81;5008158;28;20041;-78
2022/12/05 10:25:42;;;;;;;24.40;21.80;;;;;;;5.67;65.72;101862.81;5003942;28;20049;-78
2022/12/05 10:28:18;;;;;;;20.92;18.70;;;;;;;5.67;65.83;101863.69;5023116;28;20046;-77
2022/12/05 10:30:47;;;;;;;23.38;19.30;;;;;;;5.68;65.90;101854.59;5011644;28;20421;-81
2022/12/05 10:33:17;;;;;;;21.50;19.23;;;;;;;5.69;65.68;101864.31;5014394;28;20026;-78
2022/12/05 10:35:43;;;;;;;19.55;17.38;;;;;;;5.70;65.97;101867.84;5011687;28;20038;-78
2022/12/05 10:38:29;;;;;;;17.25;15.85;;;;;;;5.70;65.92;101865.16;5011320;28;20115;-79
2022/12/05 10:40:59;;;;;;;18.60;16.67;;;;;;;5.71;65.97;101869.50;5010233;28;20034;-78
2022/12/05 10:43:30;;;;;;;21.63;18.85;;;;;;;5.71;66.13;101862.28;5010962;28;20476;-78
2022/12/05 10:45:56;;;;;;;18.77;17.10;;;;;;;5.72;65.87;101863.09;5011948;28;20034;-81
2022/12/05 10:48:22;;;;;;;20.17;18.15;;;;;;;5.72;65.73;101865.78;5024988;28;20397;-78
2022/12/05 10:50:51;;;;;;;19.92;17.88;;;;;;;5.72;65.77;101863.09;5025802;28;20038;-80
2022/12/05 10:53:23;;;;;;;19.42;17.50;;;;;;;5.72;65.83;101866.63;5010595;28;20026;-77
2022/12/05 10:55:50;;;;;;;21.48;19.00;;;;;;;5.73;66.00;101870.97;5009709;28;20056;-80
2022/12/05 10:58:22;;;;;;;19.38;17.38;;;;;;;5.73;65.78;101867.47;5010762;28;20033;-80
2022/12/05 11:00:51;;;;;;;21.08;18.98;;;;;;;5.75;65.93;101870.81;5007780;28;20079;-81
2022/12/05 11:03:40;;;;;;;18.45;16.58;;;;;;;5.76;66.00;101875.13;5009558;28;20058;-80
2022/12/05 11:06:26;;;;;;;16.27;14.98;;;;;;;5.76;65.86;101870.59;5037977;28;20050;-78
2022/12/05 11:09:02;;;;;;;18.67;16.58;;;;;;;5.75;65.82;101865.44;5011891;28;20037;-80
2022/12/05 11:11:32;;;;;;;16.80;15.32;;;;;;;5.75;65.99;101868.13;5010008;28;20026;-84
2022/12/05 11:14:22;;;;;;;18.05;16.38;;;;;;;5.75;65.96;101857.41;5009975;28;20026;-78
2022/12/05 11:16:54;;;;;;;18.65;16.98;;;;;;;5.76;65.76;101859.88;5010720;28;20488;-78
2022/12/05 11:19:20;;;;;;;18.98;17.38;;;;;;;5.76;66.11;101857.19;5011351;28;20030;-80
2022/12/05 11:21:45;;;;;;;18.70;17.00;;;;;;;5.77;66.11;101858.03;5011971;28;20437;-79
2022/12/05 11:24:35;;;;;;;17.02;15.43;;;;;;;5.77;66.25;101858.88;5012865;28;20030;-79
2022/12/05 11:27:32;;;;;;;15.88;14.70;;;;;;;5.78;66.09;101862.38;5009931;28;20104;-79
2022/12/05 11:30:13;;;;;;;17.58;16.13;;;;;;;5.78;65.96;101857.84;5023424;28;20490;-81
2022/12/05 11:32:39;;;;;;;18.60;16.65;;;;;;;5.79;66.30;101853.31;5007432;28;20468;-83
2022/12/05 11:35:10;;;;;;;17.25;16.08;;;;;;;5.80;66.26;101857.69;5010863;28;20038;-79